Nautilus — OUYX2 — position and weather

sailwx.info

Track history (hours):
 
Tides and Currents Weather Stations Pressure Air Temp Water Temp Dewpoint Dewpoint Depression Visibility Wind Speed Wind Dir Waves Ship Positions

Nautilus

Last reported at 2014-Sep-17 10:33 UTC. Time now 2014-Sep-17 19:33 UTC.
Position N 62°02' W 005°25'.

Length 120 m; draft 5 m.

Type: Ship. MMSI: 219425000.

Date/timePositionNaut miles runAvg speedWind from/ knotsBaromVisibWave heightAir tempDewpointWater temp
2014-Sep-17 10:33N 62°02' W 005°25'1212.5
2014-Sep-17 09:33N 62°02' W 005°52'1212.3
2014-Sep-17 08:33N 62°06' W 006°17'1212.2
2014-Sep-17 07:33N 62°13' W 006°38'2 0.2
2014-Sep-16 23:33N 62°15' W 006°35'5 5.4
2014-Sep-16 22:33N 62°10' W 006°34'6 6.2
2014-Sep-16 21:33N 62°06' W 006°45'3 3.1
2014-Sep-16 20:33N 62°09' W 006°45'0 0.0
2014-Sep-16 19:24N 62°09' W 006°45'0 0.0
2014-Sep-16 18:33N 62°09' W 006°45'0 0.0
2014-Sep-16 17:24N 62°09' W 006°45'0 0.0
2014-Sep-16 16:30N 62°09' W 006°45'0 0.0
2014-Sep-16 15:12N 62°09' W 006°45'0 0.0
2014-Sep-16 14:27N 62°09' W 006°45'0 0.0
2014-Sep-16 13:24N 62°09' W 006°45'0 0.0
2014-Sep-16 12:33N 62°09' W 006°45'0 0.2
2014-Sep-16 11:33N 62°09' W 006°45'9 8.9
2014-Sep-16 10:33N 62°00' W 006°46'0 0.3
2014-Sep-16 09:26N 62°00' W 006°46'0 0.0
2014-Sep-16 08:11N 62°00' W 006°46'0 0.0
2014-Sep-16 07:32N 62°00' W 006°46'0 0.0
2014-Sep-16 06:32N 62°00' W 006°46'0 0.0
2014-Sep-16 05:29N 62°00' W 006°46'1 1.1
2014-Sep-16 04:33N 62°00' W 006°44'7 7.1
2014-Sep-16 03:32N 62°02' W 006°29'8 7.7
2014-Sep-16 02:33N 62°02' W 006°13'8 8.3
2014-Sep-16 01:33N 62°02' W 005°56'  
2014-Sep-13 15:28N 58°22' E 005°25'1112.0
2014-Sep-13 14:33N 58°15' E 005°41'1212.5
2014-Sep-13 13:33N 58°07' E 005°59'14012.7
2014-Sep-13 02:33N 57°50' E 010°21'1812.8
2014-Sep-13 01:09N 57°46' E 010°54'812.9
2014-Sep-13 00:33N 57°43' E 011°08'1312.9
2014-Sep-12 23:33N 57°38' E 011°30'1111.2
2014-Sep-12 22:33N 57°41' E 011°50'2 1.5
2014-Sep-12 21:31N 57°41' E 011°53'0 0.0
2014-Sep-12 20:31N 57°41' E 011°53'0 0.0
2014-Sep-12 19:31N 57°41' E 011°53'0 0.0
2014-Sep-12 18:31N 57°41' E 011°53'0 0.0
2014-Sep-12 17:31N 57°41' E 011°53'0 0.0
2014-Sep-12 16:31N 57°41' E 011°53'0 0.0
2014-Sep-12 15:31N 57°41' E 011°53'0 0.0
2014-Sep-12 14:31N 57°41' E 011°53'0 0.0
2014-Sep-12 13:31N 57°41' E 011°53'0 0.0
2014-Sep-12 12:31N 57°41' E 011°53'0 0.0
2014-Sep-12 11:31N 57°41' E 011°53'0 0.0
2014-Sep-12 10:31N 57°41' E 011°53'0 0.0
2014-Sep-12 09:31N 57°41' E 011°53'0 0.0
2014-Sep-12 08:31N 57°41' E 011°53'0 0.0
2014-Sep-12 07:31N 57°41' E 011°53'0 0.0
2014-Sep-12 06:31N 57°41' E 011°53'0 0.0
2014-Sep-12 05:34N 57°41' E 011°53'9 8.7
2014-Sep-12 04:33N 57°37' E 011°39'1010.3
2014-Sep-12 03:33N 57°40' E 011°21'1111.5
2014-Sep-12 02:34N 57°44' E 011°01'1111.2
2014-Sep-12 01:33N 57°48' E 010°41'1111.3
2014-Sep-12 00:33N 57°46' E 010°20'2711.5
2014-Sep-11 22:14N 57°35' E 009°35'4411.6
2014-Sep-11 18:25N 57°11' E 008°25'1011.9
2014-Sep-11 17:33N 57°03' E 008°15'9111.2
2014-Sep-11 09:27N 55°40' E 007°10'1011.3
2014-Sep-11 08:34N 55°30' E 007°04'4911.5
2014-Sep-11 04:17N 54°41' E 007°12'5 7.3
2014-Sep-11 03:33N 54°36' E 007°15'1111.7
2014-Sep-11 02:33N 54°25' E 007°21'1111.2
2014-Sep-11 01:33N 54°15' E 007°30'1111.4
2014-Sep-11 00:34N 54°09' E 007°46'1110.8
2014-Sep-10 23:34N 54°03' E 008°01'1010.0
2014-Sep-10 22:33N 53°60' E 008°18'1010.1
2014-Sep-10 21:33N 53°58' E 008°34'1111.2
2014-Sep-10 20:33N 53°51' E 008°49'1413.4
2014-Sep-10 19:32N 53°53' E 009°11'1613.6
2014-Sep-10 18:22N 53°41' E 009°30'1013.0
2014-Sep-10 17:33N 53°34' E 009°42'9 8.8
2014-Sep-10 16:33N 53°31' E 009°56'0 0.0
2014-Sep-10 15:29N 53°31' E 009°56'0 0.0
2014-Sep-10 14:32N 53°31' E 009°56'0 0.0
2014-Sep-10 13:32N 53°31' E 009°56'0 0.0
2014-Sep-10 12:32N 53°31' E 009°56'0 0.0
2014-Sep-10 11:29N 53°31' E 009°56'0 0.0
2014-Sep-10 10:32N 53°31' E 009°56'0 0.0
2014-Sep-10 09:29N 53°31' E 009°56'0 0.0
2014-Sep-10 08:32N 53°31' E 009°56'0 0.0
2014-Sep-10 07:29N 53°31' E 009°56'0 0.0
2014-Sep-10 06:32N 53°31' E 009°56'0 0.0
2014-Sep-10 05:29N 53°31' E 009°56'0 0.0
2014-Sep-10 04:32N 53°31' E 009°56'0 0.0
2014-Sep-10 03:32N 53°31' E 009°56'0 0.0
2014-Sep-10 02:32N 53°31' E 009°56'0 0.0
2014-Sep-10 01:32N 53°31' E 009°56'0 0.0
2014-Sep-10 00:32N 53°31' E 009°56'0 0.0
2014-Sep-09 23:32N 53°31' E 009°56'0 0.0
2014-Sep-09 22:32N 53°31' E 009°56'0 0.0
2014-Sep-09 21:32N 53°31' E 009°56'0 0.0
2014-Sep-09 20:34N 53°31' E 009°56'7 6.5
2014-Sep-09 19:34N 53°34' E 009°46'8 8.0
2014-Sep-09 18:31N 53°37' E 009°33'0 0.0
2014-Sep-09 17:31N 53°37' E 009°33'0 0.0
2014-Sep-09 16:31N 53°37' E 009°33'0 0.1
2014-Sep-09 15:31N 53°37' E 009°33'5 4.9
2014-Sep-09 14:33N 53°41' E 009°30'1513.5
2014-Sep-09 13:27N 53°53' E 009°14'3 3.8
2014-Sep-09 12:33N 53°54' E 009°09'6 5.6
2014-Sep-09 11:32N 53°58' E 009°15'84 7.0
2014-Sep-08 23:33N 54°31' E 011°28'1511.5
2014-Sep-08 22:16N 54°26' E 011°51'811.6
2014-Sep-08 21:33N 54°27' E 012°05'1111.1
2014-Sep-08 20:33N 54°36' E 012°15'1211.7
2014-Sep-08 19:33N 54°43' E 012°31'1010.2
2014-Sep-08 18:32N 54°51' E 012°42'1312.0
2014-Sep-08 17:25N 55°05' E 012°39'8 9.2
2014-Sep-08 16:32N 55°13' E 012°38'1212.1
2014-Sep-08 15:33N 55°25' E 012°40'1211.5
2014-Sep-08 14:33N 55°35' E 012°50'7 7.2
2014-Sep-08 13:33N 55°38' E 013°01'0 0.0
2014-Sep-08 12:32N 55°38' E 013°01'0 0.0
2014-Sep-08 11:32N 55°38' E 013°01'0 0.0
2014-Sep-08 10:32N 55°38' E 013°01'0 0.0
2014-Sep-08 09:32N 55°38' E 013°01'0 0.0
2014-Sep-08 08:32N 55°38' E 013°01'0 0.0
2014-Sep-08 07:32N 55°38' E 013°01'0 0.0
2014-Sep-08 06:32N 55°38' E 013°01'0 0.0
2014-Sep-08 05:32N 55°38' E 013°01'0 0.0
2014-Sep-08 04:32N 55°38' E 013°01'0 0.0
2014-Sep-08 03:32N 55°38' E 013°01'0 0.0
2014-Sep-08 02:32N 55°38' E 013°01'0 0.0
2014-Sep-08 01:29N 55°38' E 013°01'0 0.0
2014-Sep-08 00:32N 55°38' E 013°01'5 4.8
2014-Sep-07 23:33N 55°41' E 012°55'1010.0
2014-Sep-07 22:34N 55°49' E 012°44'9 9.3
2014-Sep-07 21:33N 55°58' E 012°40'10 9.6
2014-Sep-07 20:33N 56°07' E 012°32'1110.7
2014-Sep-07 19:33N 56°12' E 012°15'1311.8
2014-Sep-07 18:29N 56°10' E 011°53'  
Track history (hours):
 
Tides and Currents Weather Stations Pressure Air Temp Water Temp Dewpoint Dewpoint Depression Visibility Wind Speed Wind Dir Waves Ship Positions

Nautilus

Last reported at 2014-Sep-17 10:33 UTC. Time now 2014-Sep-17 19:33 UTC.
Position N 62°02' W 005°25'.

Length 120 m; draft 5 m.

Type: Ship. MMSI: 219425000.

Date/timePositionNaut miles runAvg speedWind from/ knotsBaromVisibWave heightAir tempDewpointWater temp
2014-Sep-17 10:33N 62°02' W 005°25'1212.5
2014-Sep-17 09:33N 62°02' W 005°52'1212.3
2014-Sep-17 08:33N 62°06' W 006°17'1212.2
2014-Sep-17 07:33N 62°13' W 006°38'2 0.2
2014-Sep-16 23:33N 62°15' W 006°35'5 5.4
2014-Sep-16 22:33N 62°10' W 006°34'6 6.2
2014-Sep-16 21:33N 62°06' W 006°45'3 3.1
2014-Sep-16 20:33N 62°09' W 006°45'0 0.0
2014-Sep-16 19:24N 62°09' W 006°45'0 0.0
2014-Sep-16 18:33N 62°09' W 006°45'0 0.0
2014-Sep-16 17:24N 62°09' W 006°45'0 0.0
2014-Sep-16 16:30N 62°09' W 006°45'0 0.0
2014-Sep-16 15:12N 62°09' W 006°45'0 0.0
2014-Sep-16 14:27N 62°09' W 006°45'0 0.0
2014-Sep-16 13:24N 62°09' W 006°45'0 0.0
2014-Sep-16 12:33N 62°09' W 006°45'0 0.2
2014-Sep-16 11:33N 62°09' W 006°45'9 8.9
2014-Sep-16 10:33N 62°00' W 006°46'0 0.3
2014-Sep-16 09:26N 62°00' W 006°46'0 0.0
2014-Sep-16 08:11N 62°00' W 006°46'0 0.0
2014-Sep-16 07:32N 62°00' W 006°46'0 0.0
2014-Sep-16 06:32N 62°00' W 006°46'0 0.0
2014-Sep-16 05:29N 62°00' W 006°46'1 1.1
2014-Sep-16 04:33N 62°00' W 006°44'7 7.1
2014-Sep-16 03:32N 62°02' W 006°29'8 7.7
2014-Sep-16 02:33N 62°02' W 006°13'8 8.3
2014-Sep-16 01:33N 62°02' W 005°56'  
2014-Sep-13 15:28N 58°22' E 005°25'1112.0
2014-Sep-13 14:33N 58°15' E 005°41'1212.5
2014-Sep-13 13:33N 58°07' E 005°59'14012.7
2014-Sep-13 02:33N 57°50' E 010°21'1812.8
2014-Sep-13 01:09N 57°46' E 010°54'812.9
2014-Sep-13 00:33N 57°43' E 011°08'1312.9
2014-Sep-12 23:33N 57°38' E 011°30'1111.2
2014-Sep-12 22:33N 57°41' E 011°50'2 1.5
2014-Sep-12 21:31N 57°41' E 011°53'0 0.0
2014-Sep-12 20:31N 57°41' E 011°53'0 0.0
2014-Sep-12 19:31N 57°41' E 011°53'0 0.0
2014-Sep-12 18:31N 57°41' E 011°53'0 0.0
2014-Sep-12 17:31N 57°41' E 011°53'0 0.0
2014-Sep-12 16:31N 57°41' E 011°53'0 0.0
2014-Sep-12 15:31N 57°41' E 011°53'0 0.0
2014-Sep-12 14:31N 57°41' E 011°53'0 0.0
2014-Sep-12 13:31N 57°41' E 011°53'0 0.0
2014-Sep-12 12:31N 57°41' E 011°53'0 0.0
2014-Sep-12 11:31N 57°41' E 011°53'0 0.0
2014-Sep-12 10:31N 57°41' E 011°53'0 0.0
2014-Sep-12 09:31N 57°41' E 011°53'0 0.0
2014-Sep-12 08:31N 57°41' E 011°53'0 0.0
2014-Sep-12 07:31N 57°41' E 011°53'0 0.0
2014-Sep-12 06:31N 57°41' E 011°53'0 0.0
2014-Sep-12 05:34N 57°41' E 011°53'9 8.7
2014-Sep-12 04:33N 57°37' E 011°39'1010.3
2014-Sep-12 03:33N 57°40' E 011°21'1111.5
2014-Sep-12 02:34N 57°44' E 011°01'1111.2
2014-Sep-12 01:33N 57°48' E 010°41'1111.3
2014-Sep-12 00:33N 57°46' E 010°20'2711.5
2014-Sep-11 22:14N 57°35' E 009°35'4411.6
2014-Sep-11 18:25N 57°11' E 008°25'1011.9
2014-Sep-11 17:33N 57°03' E 008°15'9111.2
2014-Sep-11 09:27N 55°40' E 007°10'1011.3
2014-Sep-11 08:34N 55°30' E 007°04'4911.5
2014-Sep-11 04:17N 54°41' E 007°12'5 7.3
2014-Sep-11 03:33N 54°36' E 007°15'1111.7
2014-Sep-11 02:33N 54°25' E 007°21'1111.2
2014-Sep-11 01:33N 54°15' E 007°30'1111.4
2014-Sep-11 00:34N 54°09' E 007°46'1110.8
2014-Sep-10 23:34N 54°03' E 008°01'1010.0
2014-Sep-10 22:33N 53°60' E 008°18'1010.1
2014-Sep-10 21:33N 53°58' E 008°34'1111.2
2014-Sep-10 20:33N 53°51' E 008°49'1413.4
2014-Sep-10 19:32N 53°53' E 009°11'1613.6
2014-Sep-10 18:22N 53°41' E 009°30'1013.0
2014-Sep-10 17:33N 53°34' E 009°42'9 8.8
2014-Sep-10 16:33N 53°31' E 009°56'0 0.0
2014-Sep-10 15:29N 53°31' E 009°56'0 0.0
2014-Sep-10 14:32N 53°31' E 009°56'0 0.0
2014-Sep-10 13:32N 53°31' E 009°56'0 0.0
2014-Sep-10 12:32N 53°31' E 009°56'0 0.0
2014-Sep-10 11:29N 53°31' E 009°56'0 0.0
2014-Sep-10 10:32N 53°31' E 009°56'0 0.0
2014-Sep-10 09:29N 53°31' E 009°56'0 0.0
2014-Sep-10 08:32N 53°31' E 009°56'0 0.0
2014-Sep-10 07:29N 53°31' E 009°56'0 0.0
2014-Sep-10 06:32N 53°31' E 009°56'0 0.0
2014-Sep-10 05:29N 53°31' E 009°56'0 0.0
2014-Sep-10 04:32N 53°31' E 009°56'0 0.0
2014-Sep-10 03:32N 53°31' E 009°56'0 0.0
2014-Sep-10 02:32N 53°31' E 009°56'0 0.0
2014-Sep-10 01:32N 53°31' E 009°56'0 0.0
2014-Sep-10 00:32N 53°31' E 009°56'0 0.0
2014-Sep-09 23:32N 53°31' E 009°56'0 0.0
2014-Sep-09 22:32N 53°31' E 009°56'0 0.0
2014-Sep-09 21:32N 53°31' E 009°56'0 0.0
2014-Sep-09 20:34N 53°31' E 009°56'7 6.5
2014-Sep-09 19:34N 53°34' E 009°46'8 8.0
2014-Sep-09 18:31N 53°37' E 009°33'0 0.0
2014-Sep-09 17:31N 53°37' E 009°33'0 0.0
2014-Sep-09 16:31N 53°37' E 009°33'0 0.1
2014-Sep-09 15:31N 53°37' E 009°33'5 4.9
2014-Sep-09 14:33N 53°41' E 009°30'1513.5
2014-Sep-09 13:27N 53°53' E 009°14'3 3.8
2014-Sep-09 12:33N 53°54' E 009°09'6 5.6
2014-Sep-09 11:32N 53°58' E 009°15'84 7.0
2014-Sep-08 23:33N 54°31' E 011°28'1511.5
2014-Sep-08 22:16N 54°26' E 011°51'811.6
2014-Sep-08 21:33N 54°27' E 012°05'1111.1
2014-Sep-08 20:33N 54°36' E 012°15'1211.7
2014-Sep-08 19:33N 54°43' E 012°31'1010.2
2014-Sep-08 18:32N 54°51' E 012°42'1312.0
2014-Sep-08 17:25N 55°05' E 012°39'8 9.2
2014-Sep-08 16:32N 55°13' E 012°38'1212.1
2014-Sep-08 15:33N 55°25' E 012°40'1211.5
2014-Sep-08 14:33N 55°35' E 012°50'7 7.2
2014-Sep-08 13:33N 55°38' E 013°01'0 0.0
2014-Sep-08 12:32N 55°38' E 013°01'0 0.0
2014-Sep-08 11:32N 55°38' E 013°01'0 0.0
2014-Sep-08 10:32N 55°38' E 013°01'0 0.0
2014-Sep-08 09:32N 55°38' E 013°01'0 0.0
2014-Sep-08 08:32N 55°38' E 013°01'0 0.0
2014-Sep-08 07:32N 55°38' E 013°01'0 0.0
2014-Sep-08 06:32N 55°38' E 013°01'0 0.0
2014-Sep-08 05:32N 55°38' E 013°01'0 0.0
2014-Sep-08 04:32N 55°38' E 013°01'0 0.0
2014-Sep-08 03:32N 55°38' E 013°01'0 0.0
2014-Sep-08 02:32N 55°38' E 013°01'0 0.0
2014-Sep-08 01:29N 55°38' E 013°01'0 0.0
2014-Sep-08 00:32N 55°38' E 013°01'5 4.8
2014-Sep-07 23:33N 55°41' E 012°55'1010.0
2014-Sep-07 22:34N 55°49' E 012°44'9 9.3
2014-Sep-07 21:33N 55°58' E 012°40'10 9.6
2014-Sep-07 20:33N 56°07' E 012°32'1110.7
2014-Sep-07 19:33N 56°12' E 012°15'1311.8
2014-Sep-07 18:29N 56°10' E 011°53'  

Dump ship's entire track history